createdAt,value
2022-09-28T00:00:17.659Z,14.70
2022-09-28T00:03:05.137Z,14.30
2022-09-28T00:10:33.147Z,15.77
2022-09-28T00:13:00.669Z,14.23
2022-09-28T00:15:27.156Z,14.93
2022-09-28T00:17:53.293Z,13.53
2022-09-28T00:20:21.504Z,11.90
2022-09-28T00:22:47.688Z,12.10
2022-09-28T00:25:16.118Z,11.97
2022-09-28T00:32:44.834Z,9.90
2022-09-28T00:35:11.241Z,8.10
2022-09-28T00:37:37.451Z,8.80
2022-09-28T00:40:04.204Z,7.03
2022-09-28T00:42:30.554Z,6.43
2022-09-28T00:44:57.897Z,5.80
2022-09-28T00:47:26.752Z,5.53
2022-09-28T00:55:15.400Z,3.63
2022-09-28T00:57:51.465Z,4.10
2022-09-28T01:00:18.386Z,3.80
2022-09-28T01:02:46.166Z,3.93
2022-09-28T01:05:13.337Z,3.60
2022-09-28T01:07:40.645Z,3.30
2022-09-28T01:10:07.794Z,3.97
2022-09-28T01:15:27.326Z,3.30
2022-09-28T01:17:56.463Z,3.60
2022-09-28T01:20:50.761Z,3.27
2022-09-28T01:23:36.751Z,2.97
2022-09-28T01:26:24.621Z,3.10
2022-09-28T01:28:59.614Z,2.90
2022-09-28T01:31:31.771Z,3.23
2022-09-28T06:19:09.824Z,9.47
2022-09-28T06:21:38.315Z,9.50
2022-09-28T06:24:05.257Z,9.73
2022-09-28T06:26:41.036Z,9.83
2022-09-28T06:29:45.912Z,9.77
2022-09-28T06:32:13.190Z,9.23
2022-09-28T06:34:41.372Z,9.47
2022-09-28T07:00:38.042Z,8.80
2022-09-28T07:03:16.493Z,8.83
2022-09-28T07:05:45.336Z,9.00
2022-09-28T07:08:12.350Z,8.60
2022-09-28T07:10:43.801Z,8.73
2022-09-28T07:13:30.588Z,8.50
2022-09-28T07:16:08.751Z,8.77
2022-09-28T07:52:35.544Z,8.00
2022-09-28T07:55:06.873Z,6.97
2022-09-28T07:57:34.988Z,7.30
2022-09-28T08:00:04.318Z,6.57
2022-09-28T08:02:40.065Z,6.43
2022-09-28T08:05:10.173Z,5.87
2022-09-28T08:07:37.778Z,6.20
2022-09-28T08:10:05.340Z,7.27
2022-09-28T10:06:15.676Z,3.00
2022-09-28T10:08:52.075Z,2.80
2022-09-28T10:11:33.919Z,2.83
2022-09-28T10:14:00.841Z,2.40
2022-09-28T10:16:27.820Z,2.60
2022-09-28T10:18:54.150Z,2.60
2022-09-28T10:21:22.929Z,2.40
2022-09-28T10:44:20.046Z,2.40
2022-09-28T10:47:23.350Z,2.50
2022-09-28T10:50:21.245Z,2.30
2022-09-28T10:53:19.669Z,2.20
2022-09-28T10:56:03.953Z,2.40
2022-09-28T10:58:45.904Z,2.20
2022-09-28T11:01:32.781Z,1.90
2022-09-28T11:17:44.909Z,1.70
2022-09-28T11:20:27.401Z,1.77
2022-09-28T11:23:31.496Z,1.90
2022-09-28T11:26:16.168Z,2.30
2022-09-28T11:28:50.889Z,1.93
2022-09-28T11:31:27.721Z,2.00
2022-09-28T11:34:36.425Z,1.50
2022-09-28T11:44:11.073Z,1.47
2022-09-28T11:47:15.630Z,1.97
2022-09-28T11:49:56.756Z,1.70
2022-09-28T11:52:47.041Z,1.70
2022-09-28T11:55:33.370Z,1.73
2022-09-28T13:11:24.392Z,1.87
2022-09-28T13:14:37.321Z,1.60
2022-09-28T13:17:38.623Z,1.60
2022-09-28T13:20:37.075Z,1.90
2022-09-28T13:23:10.955Z,1.77
2022-09-28T13:55:13.118Z,1.50
2022-09-28T13:57:51.686Z,1.80
2022-09-28T14:00:48.927Z,2.10
2022-09-28T14:03:26.238Z,1.10
2022-09-28T14:06:04.566Z,1.37
2022-09-28T14:08:37.668Z,1.73
2022-09-28T14:27:19.250Z,1.60
2022-09-28T14:29:48.142Z,1.50
2022-09-28T14:32:14.295Z,1.80
2022-09-28T14:34:44.276Z,1.70
2022-09-28T14:37:51.991Z,1.70
2022-09-28T14:40:45.868Z,2.17
2022-09-28T15:33:17.802Z,2.47
2022-09-28T15:36:04.726Z,2.60
2022-09-28T15:38:33.310Z,2.20
2022-09-28T15:41:03.792Z,2.77
2022-09-28T15:43:32.735Z,2.47
2022-09-28T15:46:05.688Z,2.90
2022-09-28T15:48:52.824Z,2.43
2022-09-28T16:06:07.967Z,2.70
2022-09-28T16:08:45.233Z,2.40
2022-09-28T16:11:19.486Z,3.73
2022-09-28T16:14:15.314Z,2.90
2022-09-28T16:16:48.708Z,3.10
2022-09-28T16:19:37.196Z,3.23
2022-09-28T16:37:48.070Z,3.40
2022-09-28T16:40:14.638Z,3.30
2022-09-28T16:42:48.693Z,3.60
2022-09-28T16:45:20.929Z,3.20
2022-09-28T16:47:52.052Z,4.03
2022-09-28T16:50:23.146Z,4.53
2022-09-28T16:53:29.477Z,3.90
2022-09-28T17:09:51.726Z,4.60
2022-09-28T17:12:23.884Z,4.87
2022-09-28T17:14:50.046Z,4.43
2022-09-28T17:17:17.242Z,4.47
2022-09-28T17:19:43.728Z,5.30
2022-09-28T17:22:13.600Z,4.60
2022-09-28T17:24:39.983Z,4.77
2022-09-28T17:47:56.790Z,5.60
2022-09-28T17:50:31.001Z,5.63
2022-09-28T17:52:59.146Z,5.83
2022-09-28T17:55:29.708Z,4.97
2022-09-28T17:57:55.937Z,5.97
2022-09-28T18:00:22.675Z,5.93
2022-09-28T18:21:20.311Z,5.13
2022-09-28T18:23:46.657Z,5.50
2022-09-28T18:26:14.496Z,4.87
2022-09-28T18:28:41.152Z,5.93
2022-09-28T18:31:12.415Z,5.50
2022-09-28T18:33:40.007Z,5.40
2022-09-28T18:36:07.428Z,4.70
2022-09-28T18:43:49.858Z,5.07
2022-09-28T18:46:20.098Z,4.97
2022-09-28T18:48:49.327Z,4.60
2022-09-28T18:51:15.528Z,4.20
2022-09-28T18:53:42.104Z,4.80
2022-09-28T18:56:13.921Z,5.03
2022-09-28T18:58:41.466Z,4.87
2022-09-28T21:08:07.896Z,5.77
2022-09-28T21:10:34.347Z,5.37
2022-09-28T21:13:00.695Z,5.60
2022-09-28T21:15:28.164Z,5.83
2022-09-28T21:17:54.521Z,5.70
2022-09-28T21:20:20.735Z,5.40
2022-09-28T21:22:47.442Z,6.03
2022-09-28T22:51:07.916Z,13.97
2022-09-28T22:53:34.817Z,14.20
2022-09-28T22:56:05.530Z,14.27
2022-09-28T22:58:35.801Z,14.23
2022-09-28T23:01:18.592Z,12.17
2022-09-28T23:03:45.640Z,11.00
